createdAt,value
2017-11-28T00:00:12.483Z,52.80
2017-11-28T00:01:17.093Z,52.70
2017-11-28T00:02:22.029Z,52.80
2017-11-28T00:03:26.688Z,52.80
2017-11-28T00:04:31.469Z,52.80
2017-11-28T00:05:36.148Z,52.70
2017-11-28T00:06:41.102Z,52.70
2017-11-28T00:07:46.084Z,52.90
2017-11-28T00:08:50.936Z,52.70
2017-11-28T00:09:55.882Z,52.80
2017-11-28T00:11:00.806Z,52.80
2017-11-28T00:12:05.554Z,52.70
2017-11-28T00:13:10.399Z,52.80
2017-11-28T00:14:15.327Z,52.80
2017-11-28T00:15:20.165Z,52.80
2017-11-28T00:16:29.970Z,52.80
2017-11-28T00:17:34.751Z,52.80
2017-11-28T00:18:39.542Z,52.80
2017-11-28T00:19:44.198Z,52.80
2017-11-28T00:20:48.984Z,52.70
2017-11-28T00:21:53.853Z,52.70
2017-11-28T00:22:58.609Z,52.80
2017-11-28T00:24:03.595Z,52.80
2017-11-28T00:25:08.539Z,52.80
2017-11-28T00:26:13.502Z,52.80
2017-11-28T00:27:18.388Z,52.80
2017-11-28T00:28:23.288Z,52.80
2017-11-28T00:29:27.842Z,52.80
2017-11-28T00:30:32.553Z,52.80
2017-11-28T00:31:37.207Z,52.80
2017-11-28T00:32:42.079Z,52.80
2017-11-28T00:33:46.979Z,52.90
2017-11-28T00:34:51.606Z,52.80
2017-11-28T00:35:56.505Z,52.80
2017-11-28T00:37:01.145Z,52.80
2017-11-28T00:38:05.738Z,52.80
2017-11-28T00:39:10.658Z,52.80
2017-11-28T00:40:15.472Z,52.90
2017-11-28T00:41:20.373Z,52.80
2017-11-28T00:42:25.124Z,52.80
2017-11-28T00:43:29.769Z,52.80
2017-11-28T00:44:34.333Z,52.80
2017-11-28T00:45:39.109Z,52.80
2017-11-28T00:46:43.870Z,52.90
2017-11-28T00:47:48.613Z,52.80
2017-11-28T00:48:53.441Z,52.80
2017-11-28T00:49:58.305Z,52.90
2017-11-28T00:51:02.997Z,52.80
2017-11-28T00:52:07.759Z,52.80
2017-11-28T00:53:12.438Z,52.80
2017-11-28T00:54:17.371Z,52.80
2017-11-28T00:55:22.267Z,52.80
2017-11-28T00:56:27.038Z,52.80
2017-11-28T00:57:31.839Z,52.80
2017-11-28T00:58:36.453Z,52.80
2017-11-28T00:59:41.305Z,52.80
2017-11-28T01:00:46.013Z,52.80
2017-11-28T01:01:50.606Z,52.80
2017-11-28T01:02:55.357Z,52.80
2017-11-28T01:03:59.930Z,52.80
2017-11-28T01:05:04.620Z,52.80
2017-11-28T01:06:09.928Z,52.80
2017-11-28T01:07:14.866Z,52.80
2017-11-28T01:08:19.574Z,52.80
2017-11-28T01:09:24.169Z,52.80
2017-11-28T01:10:28.741Z,52.80
2017-11-28T01:11:33.483Z,52.80
2017-11-28T01:12:38.329Z,52.80
2017-11-28T01:13:43.272Z,52.80
2017-11-28T01:14:48.434Z,52.80
2017-11-28T01:15:53.284Z,52.80
2017-11-28T01:16:57.984Z,52.80
2017-11-28T01:18:02.762Z,52.80
2017-11-28T01:19:07.477Z,52.80
2017-11-28T01:20:12.200Z,52.80
2017-11-28T01:21:17.117Z,52.80
2017-11-28T01:22:21.732Z,52.80
2017-11-28T01:23:26.558Z,52.80
2017-11-28T01:24:31.330Z,52.80
2017-11-28T01:25:36.088Z,52.80
2017-11-28T01:26:40.960Z,53.40
2017-11-28T01:27:45.674Z,53.40
2017-11-28T01:28:50.474Z,52.80
2017-11-28T01:29:55.317Z,52.80
2017-11-28T01:30:59.945Z,52.80
2017-11-28T01:32:04.583Z,52.80
2017-11-28T01:33:09.177Z,52.80
2017-11-28T01:34:13.886Z,52.80
2017-11-28T01:35:18.602Z,52.80
2017-11-28T01:36:23.209Z,52.80
2017-11-28T01:37:27.950Z,52.80
2017-11-28T01:38:32.537Z,52.80
2017-11-28T01:39:37.231Z,52.70
2017-11-28T01:40:41.948Z,52.70
2017-11-28T01:41:46.629Z,52.70
2017-11-28T01:42:51.779Z,52.70
2017-11-28T01:43:58.258Z,52.70
2017-11-28T01:45:02.855Z,52.70
2017-11-28T01:46:07.631Z,52.70
2017-11-28T01:47:12.324Z,52.70
2017-11-28T01:48:17.014Z,52.80
2017-11-28T01:49:21.732Z,52.80
2017-11-28T01:50:26.599Z,52.80
2017-11-28T01:51:31.331Z,52.80
2017-11-28T01:52:36.179Z,52.80
2017-11-28T01:53:40.922Z,52.80
2017-11-28T01:54:45.697Z,52.80
2017-11-28T01:55:50.612Z,52.80
2017-11-28T01:56:55.397Z,52.80
2017-11-28T01:58:00.177Z,52.80
2017-11-28T01:59:05.063Z,52.80
2017-11-28T02:00:09.893Z,52.80
2017-11-28T02:01:14.690Z,52.80
2017-11-28T02:02:19.312Z,52.80
2017-11-28T02:03:24.053Z,52.80
2017-11-28T02:04:28.816Z,52.80
2017-11-28T02:05:33.505Z,52.70
2017-11-28T02:06:38.090Z,52.70
2017-11-28T02:07:42.702Z,52.80
2017-11-28T02:08:47.340Z,52.70
2017-11-28T02:09:52.113Z,52.80
2017-11-28T02:10:56.954Z,52.70
2017-11-28T02:12:01.825Z,52.70
2017-11-28T02:13:07.485Z,52.70
2017-11-28T02:14:12.244Z,52.70
2017-11-28T02:15:16.889Z,52.70
2017-11-28T02:16:21.470Z,52.70
2017-11-28T02:17:26.072Z,52.70
2017-11-28T02:18:30.817Z,52.70
2017-11-28T02:19:35.533Z,52.70
2017-11-28T02:20:40.362Z,52.70
2017-11-28T02:21:45.129Z,52.70
2017-11-28T02:22:49.847Z,52.70
2017-11-28T02:23:55.696Z,52.70
2017-11-28T02:25:00.385Z,52.70
2017-11-28T02:26:05.176Z,52.70
2017-11-28T02:27:10.254Z,52.70
2017-11-28T02:28:15.584Z,52.70
2017-11-28T02:29:20.374Z,52.60
2017-11-28T02:30:25.246Z,52.60
2017-11-28T02:31:29.960Z,52.60
2017-11-28T02:32:34.714Z,52.60
2017-11-28T02:33:39.423Z,52.60
2017-11-28T02:34:44.175Z,52.60
2017-11-28T02:35:48.773Z,52.60
2017-11-28T02:36:53.509Z,52.60
2017-11-28T02:37:58.252Z,52.60
2017-11-28T02:39:02.977Z,52.60
2017-11-28T02:40:07.588Z,52.60
2017-11-28T02:41:12.524Z,52.60
2017-11-28T02:42:17.102Z,52.60
2017-11-28T02:43:21.917Z,52.60
2017-11-28T02:44:26.653Z,52.60
2017-11-28T02:45:31.343Z,52.60
2017-11-28T02:46:36.092Z,52.60
2017-11-28T02:47:40.795Z,52.50
2017-11-28T02:48:45.388Z,52.50
2017-11-28T02:49:50.145Z,52.50
2017-11-28T02:50:54.797Z,52.50
2017-11-28T02:51:59.544Z,52.40
2017-11-28T02:53:04.146Z,52.40
2017-11-28T02:54:08.891Z,52.30
2017-11-28T02:55:13.640Z,52.30
2017-11-28T02:56:18.325Z,52.40
2017-11-28T02:57:23.217Z,52.50
2017-11-28T02:58:27.951Z,52.50
2017-11-28T02:59:32.694Z,52.50
2017-11-28T03:00:37.287Z,52.40
2017-11-28T03:01:41.889Z,52.40
2017-11-28T03:02:46.476Z,52.30
2017-11-28T03:03:51.351Z,52.30
2017-11-28T03:04:55.986Z,52.30
2017-11-28T03:06:00.760Z,52.30
2017-11-28T03:07:05.532Z,52.30
2017-11-28T03:08:10.307Z,52.30
2017-11-28T03:09:15.040Z,52.30
2017-11-28T03:10:19.932Z,52.20
2017-11-28T03:11:24.797Z,52.20
2017-11-28T03:12:29.498Z,52.20
2017-11-28T03:13:34.333Z,52.30
2017-11-28T03:14:38.904Z,52.50
2017-11-28T03:15:43.462Z,52.60
2017-11-28T03:16:48.142Z,52.70
2017-11-28T03:17:52.851Z,52.70
2017-11-28T03:18:57.589Z,52.80
2017-11-28T03:20:02.464Z,52.80
2017-11-28T03:21:07.193Z,52.90
2017-11-28T03:22:12.069Z,52.90
2017-11-28T03:23:16.858Z,53.50
2017-11-28T03:24:21.639Z,53.00
2017-11-28T03:25:26.556Z,53.00
2017-11-28T03:26:31.707Z,53.00
2017-11-28T03:27:36.468Z,53.00
2017-11-28T03:28:41.103Z,53.00
2017-11-28T03:29:45.808Z,53.00
2017-11-28T03:30:50.673Z,53.00
2017-11-28T03:31:55.316Z,53.00
2017-11-28T03:33:00.217Z,53.00
2017-11-28T03:34:04.969Z,53.00
2017-11-28T03:35:09.563Z,53.00
2017-11-28T03:36:14.289Z,53.70
2017-11-28T03:37:18.827Z,53.10
2017-11-28T03:38:23.684Z,53.10
2017-11-28T03:39:28.548Z,53.10
2017-11-28T03:40:33.422Z,53.10
2017-11-28T03:41:38.167Z,53.10
2017-11-28T03:42:42.824Z,53.10
2017-11-28T03:43:47.525Z,53.10
2017-11-28T03:44:52.308Z,53.10
2017-11-28T03:45:57.204Z,53.10
2017-11-28T03:47:01.931Z,53.10
2017-11-28T03:48:06.812Z,53.10
2017-11-28T03:49:11.591Z,53.10
2017-11-28T03:50:16.344Z,53.10
2017-11-28T03:51:20.935Z,53.10
2017-11-28T03:52:25.740Z,53.10
2017-11-28T03:53:30.543Z,53.10
2017-11-28T03:54:35.979Z,53.10
2017-11-28T03:55:40.667Z,53.10
2017-11-28T03:56:45.269Z,53.10
2017-11-28T03:57:49.994Z,53.10
2017-11-28T03:58:54.747Z,53.10
2017-11-28T03:59:59.698Z,53.10
2017-11-28T04:01:04.974Z,53.10
2017-11-28T04:02:10.670Z,53.10
2017-11-28T04:03:15.609Z,53.20
2017-11-28T04:04:20.251Z,53.10
2017-11-28T04:05:24.901Z,53.10
2017-11-28T04:06:29.619Z,53.10
2017-11-28T04:07:34.220Z,53.20
2017-11-28T04:08:38.785Z,53.20
2017-11-28T04:09:43.410Z,53.10
2017-11-28T04:10:48.201Z,53.10
2017-11-28T04:11:52.951Z,53.10
2017-11-28T04:12:57.615Z,53.10
2017-11-28T04:14:02.433Z,53.10
2017-11-28T04:15:07.219Z,53.10
2017-11-28T04:16:11.992Z,53.20
2017-11-28T04:17:16.579Z,53.20
2017-11-28T04:18:21.315Z,53.10
2017-11-28T04:19:26.212Z,53.10
2017-11-28T04:20:30.841Z,53.10
2017-11-28T04:21:35.656Z,53.20
2017-11-28T04:22:40.533Z,53.10
2017-11-28T04:23:45.481Z,53.10
2017-11-28T04:24:50.308Z,53.80
2017-11-28T04:25:55.016Z,53.10
2017-11-28T04:26:59.941Z,53.10
2017-11-28T04:28:04.870Z,53.10
2017-11-28T04:29:09.795Z,53.10
2017-11-28T04:30:14.736Z,53.10
2017-11-28T04:31:19.519Z,53.10
2017-11-28T04:32:24.399Z,53.10
2017-11-28T04:33:29.056Z,53.10
2017-11-28T04:34:34.064Z,53.10
2017-11-28T04:35:38.830Z,53.00
2017-11-28T04:36:43.563Z,53.00
2017-11-28T04:37:48.512Z,53.00
2017-11-28T04:38:53.257Z,53.60
2017-11-28T04:39:58.210Z,53.10
2017-11-28T04:41:03.850Z,53.00
2017-11-28T04:42:08.557Z,53.00
2017-11-28T04:43:13.486Z,53.00
2017-11-28T04:44:18.250Z,53.00
2017-11-28T04:45:23.227Z,53.00
2017-11-28T04:46:28.256Z,53.00
2017-11-28T04:47:33.045Z,53.00
2017-11-28T04:48:37.832Z,53.00
2017-11-28T04:49:42.756Z,53.10
2017-11-28T04:50:47.533Z,53.00
2017-11-28T04:51:52.135Z,53.10
2017-11-28T04:52:56.750Z,53.00
2017-11-28T04:54:01.732Z,53.00
2017-11-28T04:55:06.618Z,53.00
2017-11-28T04:56:12.824Z,53.00
2017-11-28T04:57:17.727Z,53.00
2017-11-28T04:58:22.620Z,53.00
2017-11-28T04:59:27.409Z,53.00
2017-11-28T05:00:32.094Z,53.00
2017-11-28T05:01:37.067Z,52.90
2017-11-28T05:02:41.758Z,53.00
2017-11-28T05:03:46.743Z,53.00
2017-11-28T05:04:51.747Z,53.00
2017-11-28T05:05:56.729Z,53.00
2017-11-28T05:07:01.709Z,52.90
2017-11-28T05:08:06.671Z,52.80
2017-11-28T05:09:11.454Z,52.80
2017-11-28T05:10:16.305Z,52.80
2017-11-28T05:11:21.280Z,52.80
2017-11-28T05:12:26.089Z,52.80
2017-11-28T05:13:30.934Z,52.80
2017-11-28T05:14:35.760Z,52.70
2017-11-28T05:15:40.575Z,52.80
2017-11-28T05:16:45.375Z,52.80
2017-11-28T05:17:50.172Z,52.80
2017-11-28T05:18:55.027Z,52.80
2017-11-28T05:19:59.821Z,52.80
2017-11-28T05:21:04.522Z,52.70
2017-11-28T05:22:09.326Z,52.70
2017-11-28T05:23:14.278Z,52.60
2017-11-28T05:24:19.237Z,52.60
2017-11-28T05:25:23.961Z,52.60
2017-11-28T05:26:28.648Z,52.60
2017-11-28T05:27:33.303Z,52.60
2017-11-28T05:28:38.236Z,52.60
2017-11-28T05:29:43.216Z,52.70
2017-11-28T05:30:48.224Z,52.70
2017-11-28T05:31:53.045Z,52.70
2017-11-28T05:32:57.948Z,52.80
2017-11-28T05:34:03.052Z,52.70
2017-11-28T05:35:07.855Z,52.70
2017-11-28T05:36:13.752Z,52.60
2017-11-28T05:37:18.664Z,52.60
2017-11-28T05:38:23.575Z,52.60
2017-11-28T05:39:28.497Z,52.50
2017-11-28T05:40:33.224Z,52.50
2017-11-28T05:41:38.177Z,52.60
2017-11-28T05:42:43.150Z,52.50
2017-11-28T05:43:48.858Z,52.50
2017-11-28T05:44:53.687Z,52.60
2017-11-28T05:45:58.481Z,52.60
2017-11-28T05:47:03.294Z,52.70
2017-11-28T05:48:08.215Z,52.70
2017-11-28T05:49:13.053Z,52.70
2017-11-28T05:50:17.986Z,52.70
2017-11-28T05:51:23.902Z,52.70
2017-11-28T05:52:28.820Z,52.70
2017-11-28T05:53:33.687Z,53.10
2017-11-28T05:54:38.627Z,52.60
2017-11-28T05:55:43.627Z,52.40
2017-11-28T05:56:48.464Z,52.30
2017-11-28T05:57:53.475Z,52.40
2017-11-28T05:58:58.249Z,52.50
2017-11-28T06:00:03.073Z,52.40
2017-11-28T06:01:07.862Z,52.30
2017-11-28T06:02:12.669Z,52.30
2017-11-28T06:03:17.651Z,52.40
2017-11-28T06:04:22.456Z,52.40
2017-11-28T06:05:27.291Z,52.30
2017-11-28T06:06:32.042Z,52.10
2017-11-28T06:07:37.000Z,52.10
2017-11-28T06:08:41.827Z,52.10
2017-11-28T06:09:46.595Z,52.10
2017-11-28T06:10:51.392Z,52.00
2017-11-28T06:11:56.287Z,52.00
2017-11-28T06:13:01.072Z,52.00
2017-11-28T06:14:05.922Z,52.10
2017-11-28T06:15:10.956Z,52.10
2017-11-28T06:16:15.751Z,52.20
2017-11-28T06:17:20.450Z,52.10
2017-11-28T06:18:25.258Z,52.10
2017-11-28T06:19:30.244Z,52.10
2017-11-28T06:20:35.298Z,52.10
2017-11-28T06:21:39.896Z,52.10
2017-11-28T06:22:44.623Z,52.10
2017-11-28T06:23:49.473Z,52.10
2017-11-28T06:24:54.588Z,52.10
2017-11-28T06:25:59.773Z,52.10
2017-11-28T06:27:04.643Z,52.10
2017-11-28T06:28:09.606Z,52.10
2017-11-28T06:29:14.245Z,52.10
2017-11-28T06:30:19.193Z,52.10
2017-11-28T06:31:24.162Z,52.10
2017-11-28T06:32:30.913Z,52.00
2017-11-28T06:33:36.538Z,52.00
2017-11-28T06:34:42.620Z,52.00
2017-11-28T06:35:47.566Z,52.10
2017-11-28T06:36:52.567Z,52.20
2017-11-28T06:37:57.406Z,52.20
2017-11-28T06:39:02.317Z,52.20
2017-11-28T06:40:07.304Z,52.00
2017-11-28T06:41:12.767Z,49.40
2017-11-28T06:42:17.519Z,47.70
2017-11-28T06:43:22.438Z,45.80
2017-11-28T06:44:27.182Z,45.10
2017-11-28T06:45:31.990Z,44.30
2017-11-28T06:46:36.689Z,43.70
2017-11-28T06:47:41.381Z,43.80
2017-11-28T06:48:45.978Z,43.40
2017-11-28T06:49:50.702Z,43.10
2017-11-28T06:50:55.900Z,43.00
2017-11-28T06:52:00.882Z,43.30
2017-11-28T06:53:06.005Z,43.70
2017-11-28T06:54:11.487Z,43.90
2017-11-28T06:55:16.626Z,43.80
2017-11-28T06:56:21.765Z,44.40
2017-11-28T06:57:26.569Z,44.80
2017-11-28T06:58:31.422Z,45.50
2017-11-28T06:59:36.107Z,45.80
2017-11-28T07:00:42.006Z,46.10
2017-11-28T07:01:46.991Z,46.30
2017-11-28T07:02:51.648Z,46.60
2017-11-28T07:03:56.725Z,47.00
2017-11-28T07:05:01.678Z,47.20
2017-11-28T07:06:06.635Z,47.20
2017-11-28T07:07:11.568Z,47.40
2017-11-28T07:08:19.892Z,47.40
2017-11-28T07:09:25.344Z,47.60
2017-11-28T07:10:30.208Z,48.30
2017-11-28T07:11:35.328Z,48.70
2017-11-28T07:12:40.281Z,49.20
2017-11-28T07:13:45.450Z,49.10
2017-11-28T07:14:50.638Z,49.00
2017-11-28T07:15:55.617Z,49.10
2017-11-28T07:17:00.703Z,49.10
2017-11-28T07:18:07.310Z,48.90
2017-11-28T07:19:12.977Z,48.70
2017-11-28T07:20:17.841Z,48.60
2017-11-28T07:21:22.939Z,48.50
2017-11-28T07:22:27.831Z,48.60
2017-11-28T07:23:32.738Z,48.70
2017-11-28T07:24:37.642Z,48.90
2017-11-28T07:25:42.660Z,49.00
2017-11-28T07:26:47.374Z,49.20
2017-11-28T07:27:52.131Z,49.30
2017-11-28T07:28:57.040Z,49.30
2017-11-28T07:30:02.015Z,49.20
2017-11-28T07:31:06.862Z,50.20
2017-11-28T07:32:11.825Z,49.30
2017-11-28T07:33:16.813Z,49.60
2017-11-28T07:34:21.748Z,49.70
2017-11-28T07:35:26.707Z,49.80
2017-11-28T07:36:32.193Z,49.60
2017-11-28T07:37:37.171Z,49.70
2017-11-28T07:38:42.014Z,49.80
2017-11-28T07:39:47.081Z,50.00
2017-11-28T07:40:52.197Z,50.00
2017-11-28T07:41:56.913Z,50.00
2017-11-28T07:43:02.086Z,50.10
2017-11-28T07:44:07.073Z,50.10
2017-11-28T07:45:11.812Z,50.10
2017-11-28T07:46:16.868Z,50.20
2017-11-28T07:47:21.850Z,50.30
2017-11-28T07:48:26.711Z,50.80
2017-11-28T07:49:31.443Z,51.00
2017-11-28T07:50:36.464Z,51.00
2017-11-28T07:51:41.477Z,51.00
2017-11-28T07:52:46.320Z,50.50
2017-11-28T07:53:51.222Z,50.30
2017-11-28T07:54:56.526Z,50.30
2017-11-28T07:56:01.310Z,50.00
2017-11-28T07:57:06.306Z,49.90
2017-11-28T07:58:10.979Z,49.70
2017-11-28T07:59:15.828Z,49.60
2017-11-28T08:00:20.655Z,49.60
2017-11-28T08:01:25.609Z,49.60
2017-11-28T08:02:31.129Z,49.60
2017-11-28T08:03:35.803Z,49.60
2017-11-28T08:04:40.656Z,49.50
2017-11-28T08:05:45.622Z,49.60
2017-11-28T08:06:50.597Z,49.60
2017-11-28T08:07:55.226Z,49.70
2017-11-28T08:08:59.823Z,49.70
2017-11-28T08:10:04.454Z,49.70
2017-11-28T08:11:09.428Z,49.70
2017-11-28T08:12:14.223Z,49.80
2017-11-28T08:13:19.616Z,49.80
2017-11-28T08:14:24.603Z,49.80
2017-11-28T08:15:29.284Z,49.90
2017-11-28T08:16:34.254Z,49.90
2017-11-28T08:17:39.102Z,49.90
2017-11-28T08:18:44.006Z,49.90
2017-11-28T08:19:49.159Z,50.00
2017-11-28T08:20:53.887Z,50.00
2017-11-28T08:21:58.614Z,50.10
2017-11-28T08:23:03.274Z,50.00
2017-11-28T08:24:08.091Z,50.00
2017-11-28T08:25:12.869Z,50.10
2017-11-28T08:26:18.592Z,50.80
2017-11-28T08:27:23.607Z,50.20
2017-11-28T08:28:28.558Z,50.20
2017-11-28T08:29:33.359Z,50.20
2017-11-28T08:30:38.154Z,50.20
2017-11-28T08:31:43.532Z,50.30
2017-11-28T08:32:48.321Z,50.40
2017-11-28T08:33:53.386Z,50.40
2017-11-28T08:34:58.179Z,50.40
2017-11-28T08:36:03.049Z,50.50
2017-11-28T08:37:07.827Z,50.50
2017-11-28T08:38:12.461Z,50.50
2017-11-28T08:39:17.319Z,50.50
2017-11-28T08:40:22.106Z,50.50
2017-11-28T08:41:26.981Z,50.60
2017-11-28T08:42:31.573Z,50.60
2017-11-28T08:43:37.174Z,50.60
2017-11-28T08:44:42.063Z,50.50
2017-11-28T08:45:46.838Z,50.60
2017-11-28T08:46:51.752Z,50.70
2017-11-28T08:47:56.375Z,50.70
2017-11-28T08:49:01.269Z,50.60
2017-11-28T08:50:06.545Z,50.50
2017-11-28T08:51:11.654Z,50.50
2017-11-28T08:52:16.320Z,50.50
2017-11-28T08:53:20.973Z,50.50
2017-11-28T08:54:25.707Z,50.50
2017-11-28T08:55:30.520Z,50.50
2017-11-28T08:56:35.236Z,50.60
2017-11-28T08:57:40.245Z,50.80
2017-11-28T08:58:44.968Z,50.70
2017-11-28T08:59:49.788Z,50.70
2017-11-28T09:00:54.488Z,50.70
2017-11-28T09:01:59.277Z,50.60
2017-11-28T09:03:04.178Z,50.50
2017-11-28T09:04:08.841Z,50.60
2017-11-28T09:05:13.617Z,50.60
2017-11-28T09:06:18.337Z,50.70
2017-11-28T09:07:22.989Z,50.70
2017-11-28T09:08:28.256Z,50.80
2017-11-28T09:09:33.295Z,50.80
2017-11-28T09:10:38.163Z,50.80
2017-11-28T09:11:43.369Z,50.90
2017-11-28T09:12:48.132Z,50.90
2017-11-28T09:13:52.872Z,51.00
2017-11-28T09:14:58.079Z,51.00
2017-11-28T09:16:03.126Z,51.10
2017-11-28T09:17:07.954Z,51.10
2017-11-28T09:18:12.758Z,51.10
2017-11-28T09:19:17.842Z,51.10
2017-11-28T09:20:22.528Z,51.20
2017-11-28T09:21:27.505Z,51.20
2017-11-28T09:22:32.326Z,51.20
2017-11-28T09:23:37.149Z,51.20
2017-11-28T09:24:41.975Z,51.20
2017-11-28T09:25:46.961Z,51.20
2017-11-28T09:26:51.809Z,51.20
2017-11-28T09:27:56.629Z,51.20
2017-11-28T09:29:01.781Z,51.20
2017-11-28T09:30:06.595Z,51.10
2017-11-28T09:31:11.735Z,51.10
2017-11-28T09:32:16.654Z,51.10
2017-11-28T09:33:21.343Z,51.10
2017-11-28T09:34:26.303Z,51.10
2017-11-28T09:35:31.831Z,51.20
2017-11-28T09:36:36.776Z,51.20
2017-11-28T09:37:41.500Z,51.10
2017-11-28T09:38:46.420Z,51.20
2017-11-28T09:39:51.416Z,51.30
2017-11-28T09:40:56.405Z,51.30
2017-11-28T09:42:01.165Z,51.30
2017-11-28T09:43:06.100Z,51.30
2017-11-28T09:44:10.866Z,51.20
2017-11-28T09:45:15.612Z,51.20
2017-11-28T09:46:20.600Z,51.20
2017-11-28T09:47:25.435Z,51.20
2017-11-28T09:48:30.200Z,51.80
2017-11-28T09:49:34.936Z,51.20
2017-11-28T09:50:39.801Z,51.20
2017-11-28T09:51:44.538Z,51.20
2017-11-28T09:52:49.254Z,51.30
2017-11-28T09:53:54.106Z,51.40
2017-11-28T09:54:58.832Z,51.50
2017-11-28T09:56:03.748Z,51.50
2017-11-28T09:57:09.102Z,51.50
2017-11-28T09:58:13.824Z,51.40
2017-11-28T09:59:18.615Z,51.60
2017-11-28T10:00:23.598Z,51.60
2017-11-28T10:01:28.184Z,51.50
2017-11-28T10:02:33.076Z,51.60
2017-11-28T10:03:37.748Z,51.60
2017-11-28T10:04:42.554Z,51.60
2017-11-28T10:05:47.438Z,51.60
2017-11-28T10:06:52.349Z,51.60
2017-11-28T10:07:57.129Z,51.60
2017-11-28T10:09:02.009Z,51.60
2017-11-28T10:10:06.597Z,51.60
2017-11-28T10:11:11.318Z,51.70
2017-11-28T10:12:16.349Z,51.70
2017-11-28T10:13:21.245Z,51.70
2017-11-28T10:14:26.077Z,51.60
2017-11-28T10:15:30.789Z,51.70
2017-11-28T10:16:35.645Z,51.70
2017-11-28T10:17:40.401Z,51.70
2017-11-28T10:18:45.275Z,51.70
2017-11-28T10:19:50.048Z,51.70
2017-11-28T10:20:54.643Z,51.70
2017-11-28T10:21:59.327Z,51.70
2017-11-28T10:23:04.127Z,51.80
2017-11-28T10:24:09.242Z,51.70
2017-11-28T10:25:14.149Z,51.80
2017-11-28T10:26:18.991Z,51.70
2017-11-28T10:27:23.614Z,51.70
2017-11-28T10:28:28.284Z,51.80
2017-11-28T10:29:32.919Z,51.80
2017-11-28T10:30:37.566Z,51.80
2017-11-28T10:31:42.339Z,51.70
2017-11-28T10:32:47.101Z,51.70
2017-11-28T10:33:51.878Z,51.70
2017-11-28T10:34:56.770Z,51.70
2017-11-28T10:36:01.598Z,51.70
2017-11-28T10:37:06.199Z,51.80
2017-11-28T10:38:11.727Z,51.70
2017-11-28T10:39:16.491Z,51.70
2017-11-28T10:40:21.600Z,51.70
2017-11-28T10:41:26.277Z,51.80
2017-11-28T10:42:30.988Z,51.70
2017-11-28T10:43:35.840Z,51.70
2017-11-28T10:44:40.814Z,51.80
2017-11-28T10:45:45.756Z,51.80
2017-11-28T10:46:50.742Z,51.80
2017-11-28T10:47:55.635Z,51.80
2017-11-28T10:49:00.351Z,51.80
2017-11-28T10:50:05.265Z,51.90
2017-11-28T10:51:10.149Z,51.80
2017-11-28T10:52:14.804Z,51.80
2017-11-28T10:53:19.590Z,51.80
2017-11-28T10:54:24.534Z,51.90
2017-11-28T10:55:29.424Z,51.90
2017-11-28T10:56:34.430Z,51.80
2017-11-28T10:57:39.416Z,51.80
2017-11-28T10:58:44.402Z,51.80
2017-11-28T10:59:49.392Z,51.90
2017-11-28T11:00:54.169Z,52.00
2017-11-28T11:01:58.972Z,51.80
2017-11-28T11:03:03.794Z,51.80
2017-11-28T11:04:08.694Z,51.90
2017-11-28T11:05:13.432Z,51.90
2017-11-28T11:06:18.247Z,51.90
2017-11-28T11:07:22.859Z,51.90
2017-11-28T11:08:27.755Z,52.00
2017-11-28T11:09:32.736Z,51.90
2017-11-28T11:10:37.559Z,51.90
2017-11-28T11:11:42.432Z,51.90
2017-11-28T11:12:47.346Z,51.90
2017-11-28T11:13:52.219Z,51.90
2017-11-28T11:14:57.154Z,51.70
2017-11-28T11:16:02.066Z,51.80
2017-11-28T11:17:06.693Z,51.80
2017-11-28T11:18:11.618Z,51.90
2017-11-28T11:19:16.391Z,51.90
2017-11-28T11:20:21.268Z,51.90
2017-11-28T11:21:26.188Z,52.10
2017-11-28T11:22:31.068Z,52.00
2017-11-28T11:23:35.815Z,51.90
2017-11-28T11:24:40.555Z,52.00
2017-11-28T11:25:45.513Z,52.00
2017-11-28T11:26:50.339Z,52.00
2017-11-28T11:27:54.986Z,52.00
2017-11-28T11:28:59.918Z,52.00
2017-11-28T11:30:05.085Z,52.00
2017-11-28T11:31:10.002Z,52.00
2017-11-28T11:32:14.929Z,52.00
2017-11-28T11:33:19.809Z,52.00
2017-11-28T11:34:24.660Z,52.00
2017-11-28T11:35:29.670Z,52.00
2017-11-28T11:36:34.450Z,52.00
2017-11-28T11:37:39.354Z,52.00
2017-11-28T11:38:44.359Z,52.00
2017-11-28T11:39:49.032Z,52.00
2017-11-28T11:40:54.017Z,52.00
2017-11-28T11:41:58.872Z,52.00
2017-11-28T11:43:03.634Z,52.00
2017-11-28T11:44:08.400Z,52.00
2017-11-28T11:45:13.251Z,52.10
2017-11-28T11:46:18.114Z,52.00
2017-11-28T11:47:22.758Z,52.00
2017-11-28T11:48:27.501Z,52.00
2017-11-28T11:49:32.313Z,52.00
2017-11-28T11:50:37.179Z,52.00
2017-11-28T11:51:42.109Z,52.10
2017-11-28T11:52:47.009Z,52.00
2017-11-28T11:53:51.939Z,52.00
2017-11-28T11:54:56.721Z,52.10
2017-11-28T11:56:02.239Z,52.00
2017-11-28T11:57:07.436Z,52.00
2017-11-28T11:58:12.513Z,52.10
2017-11-28T11:59:17.260Z,52.00
2017-11-28T12:00:21.999Z,52.10
2017-11-28T12:01:26.747Z,52.10
2017-11-28T12:02:31.419Z,52.10
2017-11-28T12:03:36.252Z,52.10
2017-11-28T12:04:41.220Z,52.10
2017-11-28T12:05:45.902Z,52.10
2017-11-28T12:06:50.732Z,52.10
2017-11-28T12:07:55.537Z,52.00
2017-11-28T12:09:00.420Z,52.10
2017-11-28T12:10:05.136Z,52.00
2017-11-28T12:11:09.927Z,52.00
2017-11-28T12:12:14.775Z,52.00
2017-11-28T12:13:19.781Z,52.10
2017-11-28T12:14:24.984Z,52.10
2017-11-28T12:15:30.286Z,52.10
2017-11-28T12:16:35.108Z,52.00
2017-11-28T12:17:40.058Z,52.10
2017-11-28T12:18:44.879Z,52.20
2017-11-28T12:19:49.612Z,52.10
2017-11-28T12:20:54.241Z,52.10
2017-11-28T12:21:59.060Z,52.00
2017-11-28T12:23:03.911Z,52.00
2017-11-28T12:24:08.584Z,52.20
2017-11-28T12:25:13.388Z,52.10
2017-11-28T12:26:18.228Z,52.10
2017-11-28T12:27:23.060Z,52.10
2017-11-28T12:28:27.713Z,52.10
2017-11-28T12:29:32.653Z,52.20
2017-11-28T12:30:37.524Z,52.10
2017-11-28T12:31:42.341Z,52.20
2017-11-28T12:32:46.993Z,52.10
2017-11-28T12:33:51.922Z,52.10
2017-11-28T12:34:56.720Z,52.20
2017-11-28T12:36:01.711Z,52.10
2017-11-28T12:37:06.501Z,52.10
2017-11-28T12:38:11.251Z,52.10
2017-11-28T12:39:16.011Z,52.10
2017-11-28T12:40:20.811Z,52.10
2017-11-28T12:41:25.598Z,52.10
2017-11-28T12:42:30.279Z,52.10
2017-11-28T12:43:35.092Z,52.10
2017-11-28T12:44:40.056Z,52.10
2017-11-28T12:45:45.023Z,52.10
2017-11-28T12:46:49.663Z,52.10
2017-11-28T12:47:54.443Z,52.10
2017-11-28T12:48:59.229Z,52.10
2017-11-28T12:50:04.081Z,52.10
2017-11-28T12:51:08.881Z,52.10
2017-11-28T12:52:13.852Z,52.10
2017-11-28T12:53:18.808Z,52.10
2017-11-28T12:54:23.653Z,52.20
2017-11-28T12:55:28.501Z,52.00
2017-11-28T12:56:33.350Z,52.10
2017-11-28T12:57:38.329Z,52.10
2017-11-28T12:58:43.211Z,52.10
2017-11-28T12:59:47.915Z,52.00
2017-11-28T13:00:52.679Z,51.90
2017-11-28T13:01:57.340Z,52.00
2017-11-28T13:03:02.327Z,52.00
2017-11-28T13:04:07.138Z,51.90
2017-11-28T13:05:11.922Z,52.00
2017-11-28T13:06:16.685Z,52.00
2017-11-28T13:07:21.771Z,51.90
2017-11-28T13:08:26.689Z,51.90
2017-11-28T13:09:31.710Z,51.90
2017-11-28T13:10:36.612Z,51.90
2017-11-28T13:11:41.565Z,52.10
2017-11-28T13:12:46.619Z,52.00
2017-11-28T13:13:51.464Z,52.10
2017-11-28T13:14:56.659Z,52.10
2017-11-28T13:16:01.544Z,52.10
2017-11-28T13:17:06.306Z,52.20
2017-11-28T13:18:11.086Z,52.10
2017-11-28T13:19:15.803Z,52.00
2017-11-28T13:20:20.548Z,52.10
2017-11-28T13:21:25.300Z,52.10
2017-11-28T13:22:30.170Z,52.10
2017-11-28T13:23:35.132Z,52.20
2017-11-28T13:24:40.221Z,52.20
2017-11-28T13:25:45.142Z,52.20
2017-11-28T13:26:50.113Z,52.30
2017-11-28T13:27:54.959Z,52.20
2017-11-28T13:28:59.806Z,52.20
2017-11-28T13:30:04.765Z,52.30
2017-11-28T13:31:09.703Z,52.30
2017-11-28T13:32:14.631Z,52.30
2017-11-28T13:33:19.404Z,52.40
2017-11-28T13:34:24.912Z,52.40
2017-11-28T13:35:29.991Z,52.40
2017-11-28T13:36:35.397Z,52.40
2017-11-28T13:37:40.268Z,52.40
2017-11-28T13:38:45.202Z,52.30
2017-11-28T13:39:50.079Z,52.30
2017-11-28T13:40:55.507Z,52.20
2017-11-28T13:42:00.421Z,52.30
2017-11-28T13:43:05.289Z,52.30
2017-11-28T13:44:10.278Z,52.40
2017-11-28T13:45:15.253Z,52.40
2017-11-28T13:46:20.006Z,52.50
2017-11-28T13:47:24.949Z,52.50
2017-11-28T13:48:29.940Z,52.50
2017-11-28T13:49:34.935Z,53.20
2017-11-28T13:50:39.672Z,52.50
2017-11-28T13:51:44.590Z,52.60
2017-11-28T13:52:49.378Z,52.50
2017-11-28T13:53:54.167Z,52.50
2017-11-28T13:54:58.881Z,52.50